createdAt,value
2019-02-08T00:00:22.900Z,100.00
2019-02-08T00:02:51.230Z,100.00
2019-02-08T00:05:19.886Z,100.00
2019-02-08T00:07:49.164Z,100.00
2019-02-08T00:10:19.135Z,100.00
2019-02-08T00:12:47.592Z,100.00
2019-02-08T00:15:18.563Z,100.00
2019-02-08T00:17:46.911Z,100.00
2019-02-08T00:20:17.311Z,100.00
2019-02-08T00:22:46.658Z,100.00
2019-02-08T00:25:20.366Z,100.00
2019-02-08T00:27:48.719Z,100.00
2019-02-08T00:30:23.184Z,100.00
2019-02-08T00:32:51.625Z,100.00
2019-02-08T00:35:19.956Z,100.00
2019-02-08T00:37:48.317Z,100.00
2019-02-08T00:40:21.697Z,100.00
2019-02-08T00:42:50.033Z,100.00
2019-02-08T00:45:23.105Z,100.00
2019-02-08T00:47:51.482Z,100.00
2019-02-08T00:50:27.067Z,100.00
2019-02-08T00:52:55.609Z,100.00
2019-02-08T00:55:23.997Z,100.00
2019-02-08T00:57:52.339Z,100.00
2019-02-08T01:00:21.374Z,100.00
2019-02-08T01:02:51.080Z,100.00
2019-02-08T01:05:21.581Z,100.00
2019-02-08T01:07:50.064Z,100.00
2019-02-08T01:10:32.482Z,100.00
2019-02-08T01:13:01.998Z,100.00
2019-02-08T01:15:32.329Z,100.00
2019-02-08T01:18:01.150Z,100.00
2019-02-08T01:20:29.652Z,100.00
2019-02-08T01:22:57.940Z,100.00
2019-02-08T01:25:30.885Z,100.00
2019-02-08T01:27:59.528Z,100.00
2019-02-08T01:30:30.975Z,100.00
2019-02-08T01:32:59.384Z,100.00
2019-02-08T01:35:27.751Z,100.00
2019-02-08T01:37:56.784Z,100.00
2019-02-08T01:40:27.291Z,100.00
2019-02-08T01:42:55.659Z,100.00
2019-02-08T01:45:26.819Z,100.00
2019-02-08T01:47:55.279Z,100.00
2019-02-08T01:50:25.504Z,100.00
2019-02-08T01:52:54.891Z,100.00
2019-02-08T01:55:23.260Z,100.00
2019-02-08T01:57:52.133Z,100.00
2019-02-08T02:00:26.580Z,100.00
2019-02-08T02:02:55.806Z,100.00
2019-02-08T02:05:24.128Z,100.00
2019-02-08T02:07:53.404Z,100.00
2019-02-08T02:10:29.772Z,100.00
2019-02-08T02:12:58.164Z,100.00
2019-02-08T02:15:26.594Z,100.00
2019-02-08T02:17:54.969Z,100.00
2019-02-08T02:20:32.276Z,100.00
2019-02-08T02:23:00.965Z,100.00
2019-02-08T02:25:29.806Z,100.00
2019-02-08T02:27:58.192Z,100.00
2019-02-08T02:30:28.992Z,100.00
2019-02-08T02:32:58.343Z,100.00
2019-02-08T02:35:27.059Z,100.00
2019-02-08T02:37:55.437Z,100.00
2019-02-08T02:40:23.902Z,100.00
2019-02-08T02:42:52.504Z,100.00
2019-02-08T02:45:32.315Z,100.00
2019-02-08T02:48:00.728Z,100.00
2019-02-08T02:50:29.145Z,100.00
2019-02-08T02:52:57.563Z,100.00
2019-02-08T02:55:27.973Z,100.00
2019-02-08T02:57:56.308Z,100.00
2019-02-08T03:00:32.936Z,100.00
2019-02-08T03:03:01.205Z,100.00
2019-02-08T03:05:29.593Z,100.00
2019-02-08T03:07:58.997Z,100.00
2019-02-08T03:10:31.462Z,100.00
2019-02-08T03:12:59.817Z,100.00
2019-02-08T03:15:28.375Z,100.00
2019-02-08T03:17:57.614Z,100.00
2019-02-08T03:20:25.941Z,100.00
2019-02-08T03:22:55.206Z,100.00
2019-02-08T03:25:25.883Z,100.00
2019-02-08T03:27:54.621Z,100.00
2019-02-08T03:30:43.797Z,100.00
2019-02-08T03:33:12.170Z,100.00
2019-02-08T03:35:40.587Z,100.00
2019-02-08T03:38:08.926Z,100.00
2019-02-08T03:40:38.291Z,100.00
2019-02-08T03:43:08.134Z,100.00
2019-02-08T03:45:41.522Z,100.00
2019-02-08T03:48:10.634Z,100.00
2019-02-08T03:50:39.061Z,100.00
2019-02-08T03:53:09.086Z,100.00
2019-02-08T03:55:38.797Z,100.00
2019-02-08T03:58:07.822Z,100.00
2019-02-08T04:00:50.030Z,100.00
2019-02-08T04:03:27.819Z,100.00
2019-02-08T04:05:56.310Z,100.00
2019-02-08T04:08:25.453Z,100.00
2019-02-08T04:10:53.817Z,100.00
2019-02-08T04:13:22.148Z,100.00
2019-02-08T04:15:50.429Z,100.00
2019-02-08T04:18:18.712Z,100.00
2019-02-08T04:20:46.996Z,100.00
2019-02-08T04:23:15.275Z,100.00
2019-02-08T04:25:43.533Z,100.00
2019-02-08T04:28:11.825Z,100.00
2019-02-08T04:30:40.089Z,100.00
2019-02-08T04:33:09.428Z,100.00
2019-02-08T04:35:37.704Z,100.00
2019-02-08T04:38:06.049Z,100.00
2019-02-08T04:40:35.269Z,100.00
2019-02-08T04:43:03.544Z,100.00
2019-02-08T04:45:31.897Z,100.00
2019-02-08T04:48:00.256Z,100.00
2019-02-08T04:50:29.200Z,100.00
2019-02-08T04:52:57.849Z,100.00
2019-02-08T04:55:26.370Z,100.00
2019-02-08T04:57:54.735Z,100.00
2019-02-08T05:00:28.572Z,100.00
2019-02-08T05:02:56.990Z,100.00
2019-02-08T05:05:25.624Z,100.00
2019-02-08T05:07:53.962Z,100.00
2019-02-08T05:10:25.162Z,100.00
2019-02-08T05:12:53.527Z,100.00
2019-02-08T05:15:23.214Z,100.00
2019-02-08T05:17:51.734Z,100.00
2019-02-08T05:20:24.895Z,100.00
2019-02-08T05:22:53.491Z,100.00
2019-02-08T05:25:21.855Z,100.00
2019-02-08T05:27:52.621Z,100.00
2019-02-08T05:30:27.125Z,100.00
2019-02-08T05:32:55.573Z,100.00
2019-02-08T05:35:25.208Z,100.00
2019-02-08T05:37:54.516Z,100.00
2019-02-08T05:40:23.128Z,100.00
2019-02-08T05:42:53.005Z,100.00
2019-02-08T05:45:23.919Z,100.00
2019-02-08T05:47:52.305Z,100.00
2019-02-08T05:50:24.374Z,100.00
2019-02-08T05:52:52.745Z,100.00
2019-02-08T05:55:23.775Z,100.00
2019-02-08T05:57:52.289Z,100.00
2019-02-08T06:00:28.158Z,100.00
2019-02-08T06:02:56.506Z,100.00
2019-02-08T06:05:25.107Z,100.00
2019-02-08T06:07:53.410Z,100.00
2019-02-08T06:10:21.726Z,100.00
2019-02-08T06:12:50.337Z,100.00
2019-02-08T06:15:23.913Z,100.00
2019-02-08T06:17:52.424Z,100.00
2019-02-08T06:20:22.760Z,100.00
2019-02-08T06:22:51.113Z,100.00
2019-02-08T06:25:21.126Z,100.00
2019-02-08T06:27:50.427Z,100.00
2019-02-08T06:30:22.394Z,100.00
2019-02-08T06:32:50.769Z,100.00
2019-02-08T06:35:20.779Z,100.00
2019-02-08T06:37:49.035Z,100.00
2019-02-08T06:40:26.165Z,100.00
2019-02-08T06:42:55.014Z,100.00
2019-02-08T06:45:25.599Z,100.00
2019-02-08T06:47:54.536Z,100.00
2019-02-08T06:50:25.399Z,100.00
2019-02-08T06:52:53.853Z,100.00
2019-02-08T06:55:22.191Z,100.00
2019-02-08T06:57:55.076Z,100.00
2019-02-08T07:00:26.113Z,100.00
2019-02-08T07:03:10.844Z,100.00
2019-02-08T07:05:40.785Z,100.00
2019-02-08T07:08:10.699Z,100.00
2019-02-08T07:10:41.593Z,100.00
2019-02-08T07:13:13.933Z,100.00
2019-02-08T07:15:43.870Z,100.00
2019-02-08T07:18:13.776Z,100.00
2019-02-08T07:20:43.834Z,100.00
2019-02-08T07:23:13.809Z,100.00
2019-02-08T07:25:58.471Z,100.00
2019-02-08T07:28:31.082Z,100.00
2019-02-08T07:31:16.969Z,100.00
2019-02-08T07:33:46.886Z,100.00
2019-02-08T07:36:26.528Z,100.00
2019-02-08T07:39:02.398Z,100.00
2019-02-08T07:41:49.264Z,100.00
2019-02-08T07:44:35.197Z,100.00
2019-02-08T07:47:11.023Z,100.00
2019-02-08T07:49:42.057Z,100.00
2019-02-08T07:52:14.743Z,100.00
2019-02-08T07:55:00.247Z,100.00
2019-02-08T07:57:30.255Z,100.00
2019-02-08T08:00:08.708Z,100.00
2019-02-08T08:02:38.619Z,100.00
2019-02-08T08:05:19.540Z,100.00
2019-02-08T08:08:01.054Z,100.00
2019-02-08T08:10:33.556Z,100.00
2019-02-08T08:13:10.206Z,100.00
2019-02-08T08:15:46.339Z,100.00
2019-02-08T08:18:20.078Z,100.00
2019-02-08T08:21:06.135Z,100.00
2019-02-08T08:23:39.827Z,100.00
2019-02-08T08:26:22.259Z,100.00
2019-02-08T08:29:04.224Z,100.00
2019-02-08T08:31:36.787Z,100.00
2019-02-08T08:34:31.358Z,100.00
2019-02-08T08:37:18.689Z,100.00
2019-02-08T08:40:26.723Z,100.00
2019-02-08T08:43:24.878Z,100.00
2019-02-08T08:46:05.191Z,100.00
2019-02-08T08:48:39.392Z,100.00
2019-02-08T08:51:20.798Z,100.00
2019-02-08T08:54:09.963Z,100.00
2019-02-08T08:56:58.143Z,100.00
2019-02-08T08:59:41.733Z,100.00
2019-02-08T09:02:15.847Z,100.00
2019-02-08T09:05:16.030Z,100.00
2019-02-08T09:08:02.461Z,100.00
2019-02-08T09:10:50.704Z,100.00
2019-02-08T09:13:30.952Z,100.00
2019-02-08T09:16:23.757Z,100.00
2019-02-08T09:19:06.981Z,100.00
2019-02-08T09:21:55.289Z,100.00
2019-02-08T09:24:36.657Z,100.00
2019-02-08T09:27:32.544Z,100.00
2019-02-08T09:30:22.383Z,100.00
2019-02-08T09:33:08.660Z,100.00
2019-02-08T09:35:48.996Z,100.00
2019-02-08T09:38:47.187Z,100.00
2019-02-08T09:41:38.396Z,100.00
2019-02-08T09:44:30.877Z,100.00
2019-02-08T09:47:07.445Z,100.00
2019-02-08T09:50:03.317Z,100.00
2019-02-08T09:52:37.526Z,100.00
2019-02-08T09:55:14.787Z,100.00
2019-02-08T09:58:12.634Z,100.00
2019-02-08T10:01:02.114Z,100.00
2019-02-08T10:03:36.347Z,100.00
2019-02-08T10:06:39.456Z,100.00
2019-02-08T10:09:16.928Z,100.00
2019-02-08T10:12:13.956Z,100.00
2019-02-08T10:15:11.298Z,100.00
2019-02-08T10:17:55.849Z,100.00
2019-02-08T10:20:43.483Z,100.00
2019-02-08T10:23:40.609Z,100.00
2019-02-08T10:26:18.103Z,100.00
2019-02-08T10:29:22.263Z,100.00
2019-02-08T10:32:10.211Z,100.00
2019-02-08T10:35:02.239Z,100.00
2019-02-08T10:37:46.816Z,100.00
2019-02-08T10:40:18.269Z,100.00
2019-02-08T10:43:01.550Z,100.00
2019-02-08T10:45:52.581Z,100.00
2019-02-08T10:48:42.086Z,100.00
2019-02-08T10:51:30.147Z,100.00
2019-02-08T10:54:19.653Z,100.00
2019-02-08T10:57:09.242Z,100.00
2019-02-08T11:00:15.834Z,100.00
2019-02-08T11:03:03.802Z,100.00
2019-02-08T11:05:56.536Z,100.00
2019-02-08T11:08:39.983Z,100.00
2019-02-08T11:11:20.329Z,100.00
2019-02-08T11:14:06.592Z,100.00
2019-02-08T11:17:11.688Z,100.00
2019-02-08T11:19:38.919Z,100.00
2019-02-08T11:22:07.303Z,100.00
2019-02-08T11:24:35.650Z,100.00
2019-02-08T11:27:04.935Z,100.00
2019-02-08T11:29:33.293Z,100.00
2019-02-08T11:32:02.582Z,100.00
2019-02-08T11:34:30.861Z,100.00
2019-02-08T11:36:59.158Z,100.00
2019-02-08T11:39:27.504Z,100.00
2019-02-08T11:41:55.844Z,100.00
2019-02-08T11:44:24.260Z,100.00
2019-02-08T11:46:52.688Z,100.00
2019-02-08T11:49:21.030Z,100.00
2019-02-08T11:51:49.472Z,100.00
2019-02-08T11:54:22.614Z,100.00
2019-02-08T11:56:55.524Z,100.00
2019-02-08T11:59:23.879Z,100.00
2019-02-08T12:01:52.153Z,100.00
2019-02-08T12:04:20.514Z,100.00
2019-02-08T12:06:48.775Z,100.00
2019-02-08T12:09:18.259Z,100.00
2019-02-08T12:11:46.774Z,100.00
2019-02-08T12:14:15.051Z,100.00
2019-02-08T12:16:43.396Z,100.00
2019-02-08T12:19:11.692Z,100.00
2019-02-08T12:21:39.973Z,100.00
2019-02-08T12:24:08.834Z,100.00
2019-02-08T12:26:38.120Z,100.00
2019-02-08T12:29:06.626Z,100.00
2019-02-08T12:31:34.917Z,100.00
2019-02-08T12:34:03.209Z,100.00
2019-02-08T12:36:31.458Z,99.40
2019-02-08T12:38:59.788Z,100.00
2019-02-08T12:41:28.019Z,99.79
2019-02-08T12:43:56.312Z,99.14
2019-02-08T12:46:24.571Z,99.17
2019-02-08T12:48:52.901Z,100.00
2019-02-08T12:51:21.178Z,100.00
2019-02-08T12:53:49.461Z,100.00
2019-02-08T12:56:17.746Z,99.07
2019-02-08T12:58:46.007Z,97.42
2019-02-08T13:01:14.262Z,99.00
2019-02-08T13:03:42.658Z,98.65
2019-02-08T13:06:11.075Z,96.40
2019-02-08T13:08:39.381Z,96.97
2019-02-08T13:11:07.699Z,96.57
2019-02-08T13:13:35.968Z,97.38
2019-02-08T13:16:04.502Z,97.82
2019-02-08T13:18:32.761Z,98.23
2019-02-08T13:21:01.055Z,96.75
2019-02-08T13:23:29.317Z,99.82
2019-02-08T13:25:57.732Z,98.34
2019-02-08T13:28:26.027Z,98.61
2019-02-08T13:30:54.284Z,98.10
2019-02-08T13:33:22.556Z,98.05
2019-02-08T13:35:50.848Z,97.56
2019-02-08T13:38:19.195Z,99.18
2019-02-08T13:40:47.454Z,98.77
2019-02-08T13:43:15.747Z,96.97
2019-02-08T13:45:44.014Z,97.81
2019-02-08T13:48:12.369Z,97.76
2019-02-08T13:50:40.667Z,97.84
2019-02-08T13:53:09.154Z,97.04
2019-02-08T13:55:37.451Z,98.31
2019-02-08T13:58:06.254Z,99.30
2019-02-08T14:00:39.970Z,98.25
2019-02-08T14:03:09.467Z,96.83
2019-02-08T14:05:38.214Z,99.69
2019-02-08T14:08:07.237Z,100.00
2019-02-08T14:10:35.466Z,100.00
2019-02-08T14:13:03.846Z,100.00
2019-02-08T14:15:32.199Z,100.00
2019-02-08T14:18:00.472Z,100.00
2019-02-08T14:20:30.198Z,100.00
2019-02-08T14:22:58.457Z,100.00
2019-02-08T14:25:26.815Z,100.00
2019-02-08T14:27:55.154Z,100.00
2019-02-08T14:30:37.744Z,100.00
2019-02-08T14:33:06.157Z,100.00
2019-02-08T14:35:34.727Z,100.00
2019-02-08T14:38:05.514Z,100.00
2019-02-08T14:40:33.854Z,100.00
2019-02-08T14:43:02.113Z,100.00
2019-02-08T14:45:30.465Z,100.00
2019-02-08T14:47:58.746Z,100.00
2019-02-08T14:50:29.092Z,100.00
2019-02-08T14:52:57.671Z,100.00
2019-02-08T14:55:26.094Z,100.00
2019-02-08T14:57:56.909Z,100.00
2019-02-08T15:00:25.257Z,100.00
2019-02-08T15:02:53.603Z,100.00
2019-02-08T15:05:23.043Z,100.00
2019-02-08T15:07:51.391Z,99.64
2019-02-08T15:10:25.377Z,99.77
2019-02-08T15:12:54.504Z,100.00
2019-02-08T15:15:24.691Z,100.00
2019-02-08T15:17:52.979Z,100.00
2019-02-08T15:20:23.985Z,100.00
2019-02-08T15:22:52.542Z,100.00
2019-02-08T15:25:20.899Z,100.00
2019-02-08T15:27:49.153Z,98.73
2019-02-08T15:30:22.642Z,98.74
2019-02-08T15:32:50.893Z,98.77
2019-02-08T15:35:22.350Z,98.03
2019-02-08T15:37:50.712Z,98.00
2019-02-08T15:40:25.089Z,98.48
2019-02-08T15:42:53.466Z,97.86
2019-02-08T15:45:22.282Z,98.93
2019-02-08T15:47:50.544Z,98.32
2019-02-08T15:50:18.826Z,97.45
2019-02-08T15:52:47.334Z,96.68
2019-02-08T15:55:21.227Z,96.56
2019-02-08T15:57:49.514Z,96.77
2019-02-08T16:00:21.089Z,97.40
2019-02-08T16:02:49.934Z,97.49
2019-02-08T16:05:20.867Z,97.43
2019-02-08T16:07:49.402Z,100.00
2019-02-08T16:10:18.246Z,100.00
2019-02-08T16:12:47.686Z,100.00
2019-02-08T16:15:21.709Z,100.00
2019-02-08T16:17:50.632Z,100.00
2019-02-08T16:20:21.106Z,100.00
2019-02-08T16:22:50.187Z,100.00
2019-02-08T16:25:21.175Z,100.00
2019-02-08T16:27:49.526Z,100.00
2019-02-08T16:30:20.501Z,100.00
2019-02-08T16:32:48.798Z,100.00
2019-02-08T16:35:19.928Z,100.00
2019-02-08T16:37:48.440Z,100.00
2019-02-08T16:40:22.720Z,100.00
2019-02-08T16:42:51.074Z,100.00
2019-02-08T16:45:22.254Z,100.00
2019-02-08T16:47:51.772Z,100.00
2019-02-08T16:50:24.996Z,100.00
2019-02-08T16:52:53.345Z,100.00
2019-02-08T16:55:22.562Z,100.00
2019-02-08T16:57:51.361Z,100.00
2019-02-08T17:00:30.931Z,100.00
2019-02-08T17:03:01.448Z,100.00
2019-02-08T17:05:30.646Z,100.00
2019-02-08T17:07:58.921Z,97.35
2019-02-08T17:10:27.172Z,99.19
2019-02-08T17:12:55.465Z,98.66
2019-02-08T17:15:26.062Z,99.40
2019-02-08T17:17:54.549Z,98.48
2019-02-08T17:20:25.872Z,98.82
2019-02-08T17:22:54.144Z,99.29
2019-02-08T17:25:22.858Z,99.61
2019-02-08T17:27:55.417Z,98.31
2019-02-08T17:30:21.712Z,97.95
2019-02-08T17:32:50.139Z,99.26
2019-02-08T17:35:23.183Z,98.57
2019-02-08T17:37:51.485Z,97.86
2019-02-08T17:40:22.497Z,98.82
2019-02-08T17:42:50.779Z,100.00
2019-02-08T17:45:22.003Z,100.00
2019-02-08T17:47:51.687Z,99.68
2019-02-08T17:50:22.588Z,99.95
2019-02-08T17:52:51.095Z,99.40
2019-02-08T17:55:21.422Z,98.09
2019-02-08T17:57:50.622Z,99.97
2019-02-08T18:00:22.456Z,100.00
2019-02-08T18:02:50.728Z,98.82
2019-02-08T18:05:19.011Z,100.00
2019-02-08T18:07:47.350Z,99.86
2019-02-08T18:10:26.437Z,99.54
2019-02-08T18:12:54.738Z,99.53
2019-02-08T18:15:26.975Z,99.76
2019-02-08T18:17:55.391Z,99.38
2019-02-08T18:20:26.375Z,98.11
2019-02-08T18:22:54.677Z,98.27
2019-02-08T18:25:22.943Z,98.50
2019-02-08T18:27:51.272Z,98.52
2019-02-08T18:30:22.069Z,99.08
2019-02-08T18:32:50.344Z,98.10
2019-02-08T18:35:18.619Z,98.39
2019-02-08T18:37:47.104Z,97.96
2019-02-08T18:40:17.619Z,96.67
2019-02-08T18:42:46.006Z,98.35
2019-02-08T18:45:20.314Z,100.00
2019-02-08T18:47:49.002Z,99.92
2019-02-08T18:50:27.707Z,100.00
2019-02-08T18:52:55.975Z,97.97
2019-02-08T18:55:24.378Z,98.73
2019-02-08T18:57:52.678Z,99.24
2019-02-08T19:00:26.742Z,98.51
2019-02-08T19:02:55.096Z,99.80
2019-02-08T19:05:23.383Z,98.09
2019-02-08T19:07:51.720Z,97.44
2019-02-08T19:10:23.612Z,97.67
2019-02-08T19:12:51.943Z,99.50
2019-02-08T19:15:24.412Z,98.88
2019-02-08T19:17:52.757Z,99.80
2019-02-08T19:20:25.679Z,100.00
2019-02-08T19:22:54.022Z,98.80
2019-02-08T19:25:36.239Z,99.28
2019-02-08T19:28:06.358Z,99.15
2019-02-08T19:30:42.988Z,97.95
2019-02-08T19:33:11.321Z,97.29
2019-02-08T19:35:39.663Z,97.23
2019-02-08T19:38:08.408Z,96.92
2019-02-08T19:40:39.836Z,97.93
2019-02-08T19:43:08.120Z,97.70
2019-02-08T19:45:36.442Z,98.04
2019-02-08T19:48:07.230Z,98.11
2019-02-08T19:50:38.219Z,99.10
2019-02-08T19:53:07.276Z,98.67
2019-02-08T19:55:35.565Z,98.36
2019-02-08T19:58:04.689Z,97.97
2019-02-08T20:00:40.926Z,97.76
2019-02-08T20:03:09.640Z,98.09
2019-02-08T20:05:38.078Z,97.64
2019-02-08T20:08:07.191Z,97.55
2019-02-08T20:10:40.792Z,98.35
2019-02-08T20:13:09.205Z,97.82
2019-02-08T20:15:37.543Z,96.35
2019-02-08T20:18:06.457Z,97.50
2019-02-08T20:20:34.743Z,97.08
2019-02-08T20:23:03.092Z,97.36
2019-02-08T20:25:33.515Z,99.14
2019-02-08T20:28:01.850Z,97.40
2019-02-08T20:30:31.372Z,96.41
2019-02-08T20:33:00.067Z,95.64
2019-02-08T20:35:28.907Z,96.86
2019-02-08T20:37:58.244Z,96.07
2019-02-08T20:40:31.722Z,97.26
2019-02-08T20:43:00.017Z,96.85
2019-02-08T20:45:30.398Z,97.41
2019-02-08T20:48:00.403Z,97.15
2019-02-08T20:50:28.857Z,96.19
2019-02-08T20:52:57.187Z,95.51
2019-02-08T20:55:26.158Z,94.76
2019-02-08T20:57:54.485Z,95.98
2019-02-08T21:00:37.288Z,95.96
2019-02-08T21:03:10.968Z,96.18
2019-02-08T21:05:39.492Z,95.51
2019-02-08T21:08:09.220Z,96.06
2019-02-08T21:10:37.558Z,96.39
2019-02-08T21:13:07.579Z,96.00
2019-02-08T21:15:36.243Z,97.32
2019-02-08T21:18:05.964Z,95.35
2019-02-08T21:20:34.305Z,95.67
2019-02-08T21:23:02.580Z,94.80
2019-02-08T21:25:34.019Z,95.13
2019-02-08T21:28:02.308Z,94.10
2019-02-08T21:30:30.577Z,94.74
2019-02-08T21:32:59.220Z,95.43
2019-02-08T21:35:27.490Z,93.69
2019-02-08T21:37:55.773Z,94.70
2019-02-08T21:40:29.043Z,95.76
2019-02-08T21:42:57.490Z,95.50
2019-02-08T21:45:38.189Z,95.89
2019-02-08T21:48:08.190Z,96.07
2019-02-08T21:50:36.448Z,94.96
2019-02-08T21:53:04.793Z,95.16
2019-02-08T21:55:33.131Z,94.23
2019-02-08T21:58:01.414Z,95.40
2019-02-08T22:00:37.754Z,95.00
2019-02-08T22:03:07.033Z,93.63
2019-02-08T22:05:44.204Z,95.51
2019-02-08T22:08:12.551Z,95.97
2019-02-08T22:10:40.880Z,96.06
2019-02-08T22:13:11.333Z,95.25
2019-02-08T22:15:43.119Z,94.97
2019-02-08T22:18:11.401Z,95.78
2019-02-08T22:20:39.833Z,95.71
2019-02-08T22:23:08.174Z,96.06
2019-02-08T22:25:36.813Z,95.22
2019-02-08T22:28:05.412Z,95.93
2019-02-08T22:30:33.867Z,96.97
2019-02-08T22:33:05.297Z,96.53
2019-02-08T22:35:33.641Z,95.78
2019-02-08T22:38:01.900Z,96.99
2019-02-08T22:40:30.185Z,96.89
2019-02-08T22:42:58.455Z,93.90
2019-02-08T22:45:29.893Z,94.25
2019-02-08T22:47:58.757Z,93.97
2019-02-08T22:50:27.184Z,95.46
2019-02-08T22:52:55.513Z,93.95
2019-02-08T22:55:26.411Z,95.45
2019-02-08T22:57:54.872Z,94.58
2019-02-08T23:00:36.726Z,94.44
2019-02-08T23:03:13.330Z,94.66
2019-02-08T23:05:45.735Z,94.36
2019-02-08T23:08:11.957Z,92.87
2019-02-08T23:10:40.883Z,93.92
2019-02-08T23:13:10.880Z,93.74
2019-02-08T23:15:39.282Z,93.96
2019-02-08T23:18:09.297Z,93.54
2019-02-08T23:20:37.849Z,93.13
2019-02-08T23:23:08.103Z,91.66
2019-02-08T23:25:36.429Z,91.32
2019-02-08T23:28:05.090Z,91.54
2019-02-08T23:30:33.512Z,90.78
2019-02-08T23:33:01.786Z,91.05
2019-02-08T23:35:30.507Z,90.49
2019-02-08T23:37:58.790Z,91.77
2019-02-08T23:40:27.078Z,90.19
2019-02-08T23:42:55.381Z,90.13
2019-02-08T23:45:23.859Z,89.56
2019-02-08T23:47:52.148Z,90.92
2019-02-08T23:50:26.424Z,90.61
2019-02-08T23:52:54.768Z,90.69
2019-02-08T23:55:27.691Z,90.20
2019-02-08T23:57:55.956Z,90.17
